RJFE(METAR)
08/25 19:00
METAR RJFE 251000Z VRB02KT 9999 FEW010 SCT060 BKN090 23/21 Q1013 RMK
1CU010 3SC060 5AC090 A2994=
戻る
トップページへ戻る
IMOC Co,.Ltd.